Time;durP1;ratioP1;P1;durP2;ratioP2;P2;SDS_P1;SDS_P2;PMS_P1;PMS_P2;Temp;Humidity;BMP_temperature;BMP_pressure;BME280_temperature;BME280_humidity;BME280_pressure;Samples;Min_cycle;Max_cycle;Signal;HPM_P1;HPM_P2
2022/01/05 00:00:27;;;;;;;15.90;3.00;;;3.70;76.30;;;;;;5093242;28;20044;-62
2022/01/05 00:02:52;;;;;;;11.48;2.58;;;3.90;77.50;;;;;;5092744;28;20040;-61
2022/01/05 00:05:18;;;;;;;9.68;2.55;;;;;;;;;;5084227;28;20522;-60
2022/01/05 00:07:45;;;;;;;9.55;2.10;;;;;;;;;;5092759;28;20046;-61
2022/01/05 00:10:11;;;;;;;8.55;2.33;;;;;;;;;;5092461;28;20047;-61
2022/01/05 00:12:37;;;;;;;10.52;2.42;;;;;;;;;;5088286;28;20028;-62
2022/01/05 00:15:03;;;;;;;10.07;1.85;;;;;;;;;;5087132;28;20051;-61
2022/01/05 00:17:28;;;;;;;11.88;2.22;;;4.30;77.00;;;;;;5074473;28;20502;-61
2022/01/05 00:19:55;;;;;;;11.38;2.30;;;;;;;;;;5052286;28;20051;-61
2022/01/05 00:22:20;;;;;;;13.90;2.30;;;4.30;80.10;;;;;;5084567;28;20043;-62
2022/01/05 00:24:46;;;;;;;13.73;3.55;;;4.30;77.40;;;;;;5092870;28;20036;-61
2022/01/05 00:27:12;;;;;;;10.25;2.00;;;;;;;;;;5092696;28;20131;-62
2022/01/05 00:29:38;;;;;;;15.93;3.10;;;;;;;;;;5084468;28;20033;-62
2022/01/05 00:32:04;;;;;;;13.00;2.10;;;;;;;;;;5092685;28;20528;-61
2022/01/05 00:34:30;;;;;;;9.38;2.72;;;;;;;;;;5089411;28;20079;-61
2022/01/05 00:36:56;;;;;;;14.57;3.28;;;;;;;;;;5071522;28;20048;-62
2022/01/05 00:39:22;;;;;;;15.70;2.88;;;;;;;;;;5070523;28;20093;-62
2022/01/05 00:41:48;;;;;;;9.55;2.03;;;4.40;77.50;;;;;;5070696;28;20115;-62
2022/01/05 00:44:13;;;;;;;12.60;2.58;;;4.30;78.20;;;;;;5081074;28;20036;-62
2022/01/05 00:46:39;;;;;;;8.98;2.20;;;;;;;;;;5091942;28;20521;-63
2022/01/05 00:49:05;;;;;;;14.90;2.17;;;;;;;;;;5086102;28;20036;-61
2022/01/05 00:51:31;;;;;;;9.38;3.05;;;;;;;;;;5086373;28;20119;-62
2022/01/05 00:53:57;;;;;;;16.00;3.83;;;;;;;;;;5095115;28;20648;-62
2022/01/05 00:56:23;;;;;;;10.02;2.30;;;;;;;;;;5094492;28;20040;-62
2022/01/05 00:58:49;;;;;;;14.15;3.17;;;;;;;;;;5095188;28;20040;-61
2022/01/05 01:01:15;;;;;;;10.57;2.70;;;;;;;;;;5094579;28;20038;-61
2022/01/05 01:03:41;;;;;;;8.98;2.00;;;4.30;77.90;;;;;;5076457;28;20119;-61
2022/01/05 01:06:07;;;;;;;12.60;3.17;;;4.30;76.60;;;;;;5094373;28;20122;-61
2022/01/05 01:08:33;;;;;;;11.00;2.38;;;;;;;;;;5094718;28;20041;-62
2022/01/05 01:10:59;;;;;;;11.80;2.85;;;;;;;;;;5094316;28;20076;-61
2022/01/05 01:13:25;;;;;;;11.00;2.20;;;;;;;;;;5094522;28;20711;-62
2022/01/05 01:15:51;;;;;;;8.93;2.38;;;;;;;;;;5091747;28;20031;-62
2022/01/05 01:18:18;;;;;;;14.63;3.45;;;;;;;;;;5093374;28;20040;-61
2022/01/05 01:20:45;;;;;;;9.73;2.47;;;;;;;;;;5086195;28;20059;-61
2022/01/05 01:23:11;;;;;;;12.57;3.30;;;4.30;74.60;;;;;;5086164;28;20032;-62
2022/01/05 01:25:37;;;;;;;15.57;2.80;;;;;;;;;;5093648;28;20127;-62
2022/01/05 01:30:32;;;;;;;14.00;2.63;;;;;;;;;;5051459;28;20130;-63
2022/01/05 01:32:58;;;;;;;14.32;3.20;;;;;;;;;;5053540;28;20101;-62
2022/01/05 01:35:24;;;;;;;11.90;2.78;;;;;;;;;;5053281;28;20127;-62
2022/01/05 01:37:50;;;;;;;10.32;2.88;;;;;;;;;;5030732;28;20041;-63
2022/01/05 01:40:16;;;;;;;15.80;3.10;;;4.30;79.00;;;;;;5050976;28;20044;-63
2022/01/05 01:42:41;;;;;;;15.00;2.80;;;4.30;77.30;;;;;;5053144;28;20530;-62
2022/01/05 01:45:07;;;;;;;12.68;3.13;;;4.50;78.80;;;;;;5053303;28;20119;-61
2022/01/05 01:47:33;;;;;;;12.93;2.92;;;;;;;;;;5052602;28;20041;-62
2022/01/05 01:49:59;;;;;;;19.75;3.03;;;;;;;;;;5060674;28;20056;-61
2022/01/05 01:52:25;;;;;;;9.77;2.67;;;;;;;;;;5060029;28;20041;-62
2022/01/05 01:54:51;;;;;;;13.45;3.05;;;;;;;;;;5060724;28;20517;-61
2022/01/05 01:57:20;;;;;;;10.35;3.33;;;;;;;;;;5069138;28;20047;-63
2022/01/05 01:59:46;;;;;;;12.23;2.53;;;5.10;73.70;;;;;;5054059;28;20138;-62
2022/01/05 02:02:12;;;;;;;9.98;2.30;;;4.50;74.30;;;;;;5048242;28;20047;-61
2022/01/05 02:04:39;;;;;;;11.65;2.03;;;;;;;;;;5055732;28;20490;-62
2022/01/05 02:07:05;;;;;;;13.85;2.70;;;4.40;76.60;;;;;;5063878;28;20297;-62
2022/01/05 02:09:31;;;;;;;11.73;3.15;;;4.50;76.40;;;;;;5072730;28;20123;-63
2022/01/05 02:11:57;;;;;;;13.15;3.80;;;;;;;;;;5072874;28;20033;-61
2022/01/05 02:14:23;;;;;;;9.07;2.40;;;;;;;;;;5072537;28;20072;-63
2022/01/05 02:16:49;;;;;;;12.90;2.70;;;;;;;;;;5072461;28;20040;-62
2022/01/05 02:19:15;;;;;;;16.13;2.75;;;;;;;;;;5050960;28;20304;-62
2022/01/05 02:21:42;;;;;;;13.40;2.80;;;;;;;;;;5060631;28;20068;-62
2022/01/05 02:24:09;;;;;;;17.27;3.40;;;;;;;;;;5046388;28;20048;-62
2022/01/05 02:26:36;;;;;;;14.38;3.10;;;;;;;;;;5072139;28;20044;-62
2022/01/05 02:29:02;;;;;;;13.50;2.90;;;;;;;;;;5072156;28;20521;-61
2022/01/05 02:31:28;;;;;;;12.70;2.25;;;;;;;;;;5072153;28;20072;-61
2022/01/05 02:33:54;;;;;;;8.07;1.77;;;;;;;;;;5065789;28;20068;-61
2022/01/05 02:36:21;;;;;;;11.98;3.50;;;;;;;;;;5068068;28;20049;-63
2022/01/05 02:38:52;;;;;;;11.95;2.58;;;;;;;;;;5072179;28;20052;-61
2022/01/05 02:41:18;;;;;;;12.90;3.65;;;;;;;;;;5072061;28;20048;-61
2022/01/05 02:43:45;;;;;;;12.23;2.65;;;4.50;81.80;;;;;;5054108;28;20048;-62
2022/01/05 02:46:13;;;;;;;8.93;1.92;;;4.50;83.90;;;;;;5071402;28;20091;-61
2022/01/05 02:48:40;;;;;;;8.75;2.20;;;;;;;;;;5066297;28;20044;-61
2022/01/05 02:51:06;;;;;;;8.02;2.10;;;;;;;;;;5060330;28;20040;-61
2022/01/05 02:53:33;;;;;;;8.38;3.15;;;4.60;88.20;;;;;;5061552;28;20037;-61
2022/01/05 02:55:59;;;;;;;13.95;3.17;;;4.40;88.20;;;;;;5065115;28;20558;-61
2022/01/05 02:58:25;;;;;;;11.55;2.85;;;;;;;;;;5071928;28;20120;-62
2022/01/05 03:00:51;;;;;;;6.18;1.98;;;;;;;;;;5064590;28;20033;-62
2022/01/05 03:03:17;;;;;;;11.38;2.97;;;;;;;;;;5067617;28;20047;-61
2022/01/05 03:05:43;;;;;;;9.85;2.35;;;4.50;89.60;;;;;;5063000;28;20036;-62
2022/01/05 03:08:09;;;;;;;10.00;2.45;;;4.60;89.50;;;;;;5063131;28;20043;-62
2022/01/05 03:10:35;;;;;;;12.68;2.47;;;;;;;;;;5071630;28;20107;-61
2022/01/05 03:13:01;;;;;;;12.52;2.78;;;;;;;;;;5071367;28;20040;-60
2022/01/05 03:15:28;;;;;;;13.40;2.38;;;;;;;;;;5071168;28;20062;-62
2022/01/05 03:17:54;;;;;;;19.55;2.95;;;;;;;;;;5071384;28;20418;-61
2022/01/05 03:20:22;;;;;;;13.55;3.40;;;;;;;;;;5048360;28;20053;-61
2022/01/05 03:22:48;;;;;;;10.20;3.05;;;3.70;99.90;;;;;;5020591;28;20036;-62
2022/01/05 03:25:19;;;;;;;17.35;3.58;;;;;;;;;;5066837;28;20097;-61
2022/01/05 03:27:49;;;;;;;8.02;2.95;;;4.10;99.90;;;;;;5071423;28;20120;-62
2022/01/05 03:30:17;;;;;;;10.27;2.22;;;;;;;;;;5071161;28;20109;-62
2022/01/05 03:35:20;;;;;;;6.18;1.40;;;3.60;99.90;;;;;;5070776;28;20059;-62
2022/01/05 03:37:46;;;;;;;9.20;1.92;;;;;;;;;;5063087;28;20136;-61
2022/01/05 03:40:12;;;;;;;11.05;2.10;;;;;;;;;;5071226;28;20119;-62
2022/01/05 03:42:38;;;;;;;9.68;1.80;;;;;;;;;;5071239;28;20041;-61
2022/01/05 03:45:04;;;;;;;12.57;2.88;;;;;;;;;;5070859;28;20462;-61
2022/01/05 03:47:30;;;;;;;13.57;3.38;;;3.50;99.90;;;;;;5071203;28;20040;-61
2022/01/05 03:49:56;;;;;;;11.27;2.53;;;;;;;;;;5071377;28;20525;-62
2022/01/05 03:52:22;;;;;;;10.05;2.80;;;;;;;;;;5063475;28;20507;-61
2022/01/05 03:54:48;;;;;;;10.45;2.90;;;3.40;99.90;;;;;;5062369;28;20037;-62
2022/01/05 03:57:14;;;;;;;13.13;2.50;;;;;;;;;;5044550;28;20043;-62
2022/01/05 03:59:40;;;;;;;13.50;2.10;;;;;;;;;;5049881;28;20047;-62
2022/01/05 04:02:06;;;;;;;12.43;2.60;;;;;;;;;;5051389;28;20041;-62
2022/01/05 04:04:32;;;;;;;16.55;2.42;;;;;;;;;;5033290;28;20044;-62
2022/01/05 04:06:58;;;;;;;14.45;3.28;;;;;;;;;;5058908;28;20033;-63
2022/01/05 04:09:24;;;;;;;12.07;2.30;;;;;;;;;;5068081;28;20040;-62
2022/01/05 04:11:49;;;;;;;16.33;4.53;;;3.60;99.90;;;;;;5070851;28;20459;-62
2022/01/05 04:14:15;;;;;;;14.77;3.35;;;3.70;99.90;;;;;;5059532;28;20037;-62
2022/01/05 04:16:41;;;;;;;18.55;2.85;;;;;;;;;;5070234;28;20116;-62
2022/01/05 04:19:07;;;;;;;18.08;4.05;;;;;;;;;;5074191;28;20040;-62
2022/01/05 04:21:32;;;;;;;14.68;3.20;;;3.70;99.90;;;;;;5074729;28;20040;-62
2022/01/05 04:23:58;;;;;;;14.65;3.25;;;;;;;;;;5067465;28;20046;-62
2022/01/05 04:26:24;;;;;;;20.40;3.70;;;;;;;;;;5055378;28;20064;-62
2022/01/05 04:28:50;;;;;;;13.95;3.80;;;3.80;99.90;;;;;;5055083;28;20048;-62
2022/01/05 04:31:16;;;;;;;15.50;3.65;;;;;;;;;;5036023;28;20055;-62
2022/01/05 04:33:42;;;;;;;14.02;3.65;;;;;;;;;;5069290;28;20087;-62
2022/01/05 04:36:08;;;;;;;10.90;2.60;;;;;;;;;;5062686;28;20040;-62
2022/01/05 04:38:34;;;;;;;12.43;3.22;;;;;;;;;;5066758;28;20131;-62
2022/01/05 04:41:00;;;;;;;18.55;3.88;;;;;;;;;;5044302;28;20048;-62
2022/01/05 04:43:26;;;;;;;16.13;3.80;;;;;;;;;;5063073;28;20094;-62
2022/01/05 04:45:52;;;;;;;15.32;3.97;;;4.00;99.90;;;;;;5067149;28;20036;-62
2022/01/05 04:48:18;;;;;;;13.05;2.90;;;;;;;;;;5070497;28;20122;-61
2022/01/05 04:50:44;;;;;;;19.30;5.35;;;;;;;;;;5067898;28;20032;-61
2022/01/05 04:53:11;;;;;;;10.98;2.72;;;4.10;99.90;;;;;;5061488;28;20483;-62
2022/01/05 04:55:38;;;;;;;11.50;2.50;;;;;;;;;;5040622;28;20041;-62
2022/01/05 04:58:04;;;;;;;12.63;3.28;;;;;;;;;;5067045;28;20094;-61
2022/01/05 05:00:30;;;;;;;10.85;2.92;;;4.10;99.90;;;;;;5065676;28;20040;-61
2022/01/05 05:02:56;;;;;;;11.80;2.72;;;;;;;;;;5065744;28;20091;-62
2022/01/05 05:05:22;;;;;;;16.85;3.88;;;;;;;;;;5067642;28;20114;-62
2022/01/05 05:07:47;;;;;;;11.07;2.58;;;4.10;99.90;;;;;;5062146;28;20064;-62
2022/01/05 05:10:13;;;;;;;17.63;4.90;;;;;;;;;;5069311;28;20029;-62
2022/01/05 05:12:39;;;;;;;15.23;3.13;;;;;;;;;;5073787;28;20483;-62
2022/01/05 05:15:05;;;;;;;16.85;4.28;;;4.10;99.90;;;;;;5073813;28;20051;-61
2022/01/05 05:17:31;;;;;;;22.75;4.40;;;;;;;;;;5073944;28;20467;-62
2022/01/05 05:19:57;;;;;;;11.45;2.75;;;;;;;;;;5074047;28;20394;-62
2022/01/05 05:22:23;;;;;;;21.55;4.18;;;;;;;;;;5073933;28;20046;-62
2022/01/05 05:24:49;;;;;;;17.30;4.93;;;;;;;;;;5073117;28;20068;-62
2022/01/05 05:27:15;;;;;;;18.15;4.65;;;;;;;;;;5066409;28;20534;-62
2022/01/05 05:29:41;;;;;;;14.95;3.58;;;;;;;;;;5066088;28;20044;-63
2022/01/05 05:32:08;;;;;;;15.32;3.65;;;;;;;;;;5063201;28;20028;-62
2022/01/05 05:34:34;;;;;;;14.15;2.72;;;;;;;;;;5062453;28;20127;-62
2022/01/05 05:37:00;;;;;;;15.52;3.53;;;;;;;;;;5067078;28;20072;-63
2022/01/05 05:39:26;;;;;;;23.92;3.75;;;;;;;;;;5064598;28;20522;-63
2022/01/05 05:41:52;;;;;;;18.75;3.75;;;;;;;;;;5060650;28;20053;-63
2022/01/05 05:44:18;;;;;;;12.73;2.55;;;;;;;;;;5053083;28;20098;-63
2022/01/05 05:46:44;;;;;;;17.55;4.38;;;;;;;;;;5035356;28;20456;-63
2022/01/05 05:49:10;;;;;;;17.58;4.35;;;4.40;99.90;;;;;;5053104;28;20586;-63
2022/01/05 05:51:35;;;;;;;18.40;3.15;;;4.60;99.90;;;;;;5054118;28;20072;-63
2022/01/05 05:54:01;;;;;;;17.33;3.20;;;4.60;99.90;;;;;;5053152;28;20399;-64
2022/01/05 05:56:27;;;;;;;16.85;3.95;;;;;;;;;;5052919;28;20129;-63
2022/01/05 05:58:53;;;;;;;18.45;3.95;;;;;;;;;;5050421;28;20476;-63
2022/01/05 06:01:19;;;;;;;13.95;3.20;;;;;;;;;;5061223;28;20037;-62
2022/01/05 06:03:45;;;;;;;15.20;3.05;;;4.60;99.90;;;;;;5049582;28;20082;-63
2022/01/05 06:06:11;;;;;;;10.23;1.92;;;;;;;;;;5055685;28;20126;-63
2022/01/05 06:08:37;;;;;;;17.75;2.38;;;4.20;99.90;;;;;;5060771;28;20041;-62
2022/01/05 06:11:03;;;;;;;13.05;2.35;;;;;;;;;;5053077;28;20043;-61
2022/01/05 06:13:29;;;;;;;11.80;2.10;;;;;;;;;;5052729;28;20048;-63
2022/01/05 06:15:55;;;;;;;15.25;2.75;;;;;;;;;;5052544;28;20037;-62
2022/01/05 06:18:20;;;;;;;18.63;4.32;;;;;;;;;;5052525;28;20554;-63
2022/01/05 06:20:46;;;;;;;14.85;3.50;;;;;;;;;;5056206;28;20032;-62
2022/01/05 06:23:12;;;;;;;15.07;2.00;;;4.20;99.90;;;;;;5063738;28;20120;-64
2022/01/05 06:25:38;;;;;;;16.02;2.90;;;;;;;;;;5072025;28;20486;-62
2022/01/05 06:28:08;;;;;;;13.23;2.70;;;;;;;;;;5072499;28;20040;-63
2022/01/05 06:30:34;;;;;;;15.55;2.65;;;;;;;;;;5038343;28;20037;-62
2022/01/05 06:33:00;;;;;;;16.23;3.83;;;;;;;;;;5050328;28;20037;-62
2022/01/05 06:35:26;;;;;;;14.18;3.17;;;;;;;;;;5062783;28;20044;-62
2022/01/05 06:37:52;;;;;;;7.60;2.15;;;;;;;;;;5061934;28;20036;-62
2022/01/05 06:40:19;;;;;;;12.32;3.42;;;;;;;;;;5041806;28;20044;-63
2022/01/05 06:42:45;;;;;;;17.20;3.75;;;;;;;;;;4997980;28;20037;-62
2022/01/05 06:45:11;;;;;;;15.60;4.18;;;;;;;;;;5032851;28;20111;-62
2022/01/05 06:47:37;;;;;;;14.65;3.03;;;;;;;;;;5036965;28;20496;-62
2022/01/05 06:50:03;;;;;;;17.65;4.30;;;;;;;;;;5035901;28;20045;-62
2022/01/05 06:52:28;;;;;;;14.73;3.10;;;4.80;99.90;;;;;;5037124;28;20044;-63
2022/01/05 06:54:54;;;;;;;9.75;2.75;;;;;;;;;;5051117;28;20058;-61
2022/01/05 06:57:20;;;;;;;14.05;3.17;;;;;;;;;;5051796;28;20037;-62
2022/01/05 06:59:46;;;;;;;13.50;2.40;;;4.80;99.90;;;;;;5051886;28;20479;-62
2022/01/05 07:02:12;;;;;;;16.80;3.42;;;;;;;;;;5033048;28;20032;-61
2022/01/05 07:04:38;;;;;;;7.97;2.10;;;;;;;;;;5062881;28;20087;-62
2022/01/05 07:07:04;;;;;;;12.63;2.42;;;;;;;;;;5059223;28;20094;-62
2022/01/05 07:09:30;;;;;;;21.60;2.83;;;;;;;;;;5069825;28;20324;-62
2022/01/05 07:11:56;;;;;;;11.07;2.15;;;;;;;;;;5071678;28;20042;-62
2022/01/05 07:14:23;;;;;;;17.13;2.70;;;4.80;99.90;;;;;;5062857;28;20040;-62
2022/01/05 07:16:49;;;;;;;13.27;2.78;;;;;;;;;;5058898;28;20526;-61
2022/01/05 07:19:16;;;;;;;12.30;2.90;;;;;;;;;;5059062;28;20068;-62
2022/01/05 07:21:42;;;;;;;16.80;3.30;;;;;;;;;;5062541;28;20090;-62
2022/01/05 07:24:12;;;;;;;15.93;3.30;;;;;;;;;;5071514;28;20036;-61
2022/01/05 07:26:38;;;;;;;17.38;3.92;;;;;;;;;;5037751;28;20033;-61
2022/01/05 07:29:04;;;;;;;21.17;3.50;;;;;;;;;;5049774;28;20138;-60
2022/01/05 07:31:30;;;;;;;6.78;1.40;;;;;;;;;;5050125;28;20037;-61
2022/01/05 07:33:56;;;;;;;7.40;1.80;;;;;;;;;;5049976;28;20041;-60
2022/01/05 07:36:22;;;;;;;12.82;1.70;;;;;;;;;;5049761;28;20041;-61
2022/01/05 07:39:15;;;;;;;7.07;1.63;;;;;;;;;;5086850;22;20040;-88
2022/01/05 07:41:55;;;;;;;;;;;;;;;;;;;;;
2022/01/05 07:44:57;;;;;;;10.25;1.65;;;;;;;;;;5068917;28;20047;-86
2022/01/05 07:47:41;;;;;;;12.10;2.65;;;;;;;;;;5038407;28;20410;-86
2022/01/05 07:50:32;;;;;;;20.05;3.40;;;;;;;;;;5053796;28;20033;-88
2022/01/05 07:53:46;;;;;;;16.80;3.63;;;;;;;;;;5016482;28;20049;-88
2022/01/05 08:00:07;;;;;;;17.80;3.92;;;;;;;;;;4971580;28;20042;-87
2022/01/05 08:02:57;;;;;;;;;;;;;;;;;;;;;
2022/01/05 08:05:40;;;;;;;15.32;3.28;;;;;;;;;;5069112;28;20582;-89
2022/01/05 08:08:09;;;;;;;14.35;2.42;;;;;;;;;;5060356;28;20514;-87
2022/01/05 08:10:37;;;;;;;11.18;2.10;;;;;;;;;;5074662;28;20127;-88
2022/01/05 08:13:03;;;;;;;11.65;1.60;;;;;;;;;;5075577;28;20066;-87
2022/01/05 08:15:53;;;;;;;5.95;1.40;;;;;;;;;;5057471;28;20044;-87
2022/01/05 08:18:54;;;;;;;8.93;2.88;;;;;;;;;;5058570;28;20103;-87
2022/01/05 08:21:26;;;;;;;12.77;2.25;;;;;;;;;;5043792;28;20472;-87
2022/01/05 08:23:55;;;;;;;13.18;2.28;;;;;;;;;;5069684;28;20039;-89
2022/01/05 08:26:37;;;;;;;12.27;2.42;;;;;;;;;;5055275;28;20040;-88
2022/01/05 08:29:37;;;;;;;;;;;;;;;;;;5063301;28;20058;-86
2022/01/05 08:32:31;;;;;;;;;;;;;;;;;;;;;
2022/01/05 08:35:32;;;;;;;16.48;3.63;;;;;;;;;;5074485;28;20046;-86
2022/01/05 08:38:04;;;;;;;;;;;;;;;;;;4990124;28;20042;-88
2022/01/05 08:40:40;;;;;;;14.15;3.10;;;;;;;;;;4977939;28;20246;-87
2022/01/05 08:43:15;;;;;;;27.38;4.82;;;;;;;;;;4984835;28;20141;-87
2022/01/05 08:49:17;;;;;;;16.00;3.47;;;;;;;;;;5045916;22;20118;-63
2022/01/05 08:51:43;;;;;;;25.85;4.15;;;4.90;99.90;;;;;;5096691;28;20514;-63
2022/01/05 08:54:10;;;;;;;19.60;3.75;;;;;;;;;;5096400;28;20040;-63
2022/01/05 08:56:37;;;;;;;21.08;5.15;;;;;;;;;;5088001;28;20043;-63
2022/01/05 08:59:03;;;;;;;26.25;6.18;;;;;;;;;;5096192;28;20093;-63
2022/01/05 09:01:29;;;;;;;25.23;6.57;;;;;;;;;;5096233;28;20339;-63
2022/01/05 09:03:55;;;;;;;28.42;5.40;;;;;;;;;;5061194;28;20133;-62
2022/01/05 09:06:22;;;;;;;29.35;5.80;;;5.60;99.90;;;;;;5073516;28;20116;-62
2022/01/05 09:08:48;;;;;;;23.80;5.55;;;5.70;99.90;;;;;;5087133;28;20036;-62
2022/01/05 09:11:15;;;;;;;27.77;6.85;;;5.70;99.90;;;;;;5070019;28;20032;-63
2022/01/05 09:13:42;;;;;;;30.80;7.05;;;5.70;99.90;;;;;;5083828;28;20049;-62
2022/01/05 09:16:08;;;;;;;24.80;5.35;;;5.70;99.90;;;;;;5057051;28;20044;-62
2022/01/05 09:18:34;;;;;;;22.02;5.35;;;;;;;;;;5040111;28;20044;-63
2022/01/05 09:21:00;;;;;;;26.10;5.20;;;5.70;99.90;;;;;;5074565;28;20052;-63
2022/01/05 09:23:26;;;;;;;23.52;5.18;;;;;;;;;;5075111;28;20073;-62
2022/01/05 09:25:52;;;;;;;29.52;5.50;;;;;;;;;;5073142;28;20043;-63
2022/01/05 09:28:18;;;;;;;17.15;5.10;;;;;;;;;;5074418;28;20046;-62
2022/01/05 09:30:46;;;;;;;27.92;5.38;;;;;;;;;;5072500;28;20029;-62
2022/01/05 09:33:13;;;;;;;27.20;5.07;;;;;;;;;;5075212;28;20060;-63
2022/01/05 09:35:39;;;;;;;21.27;4.47;;;;;;;;;;5071561;28;20402;-63
2022/01/05 09:38:09;;;;;;;24.23;5.65;;;;;;;;;;5056002;28;20127;-63
2022/01/05 09:43:21;;;;;;;21.33;4.53;;;5.90;99.90;;;;;;5074646;28;20081;-63
2022/01/05 09:45:56;;;;;;;20.38;4.10;;;;;;;;;;5072882;28;20068;-63
2022/01/05 09:48:43;;;;;;;19.30;4.88;;;6.10;99.90;;;;;;5068156;28;20036;-62
2022/01/05 09:51:10;;;;;;;13.00;3.30;;;;;;;;;;5071974;28;20105;-62
2022/01/05 09:53:37;;;;;;;21.42;3.78;;;6.10;99.90;;;;;;5072803;28;20105;-63
2022/01/05 09:56:04;;;;;;;18.65;3.60;;;;;;;;;;5073325;28;20530;-62
2022/01/05 09:58:31;;;;;;;26.98;4.97;;;5.50;99.90;;;;;;5074001;28;20040;-62
2022/01/05 10:00:57;;;;;;;26.42;5.22;;;;;;;;;;5074923;28;20036;-63
2022/01/05 10:03:23;;;;;;;21.50;3.88;;;;;;;;;;5070905;28;20032;-63
2022/01/05 10:05:49;;;;;;;22.98;3.83;;;5.90;99.90;;;;;;5067481;28;20033;-63
2022/01/05 10:08:15;;;;;;;24.15;4.60;;;6.20;99.90;;;;;;5073762;28;20048;-63
2022/01/05 10:10:42;;;;;;;21.88;5.10;;;6.20;99.90;;;;;;5073037;28;20394;-63
2022/01/05 10:13:08;;;;;;;16.80;3.63;;;6.10;99.90;;;;;;5072902;28;20487;-63
2022/01/05 10:15:35;;;;;;;16.05;3.95;;;;;;;;;;5072040;28;20044;-63
2022/01/05 10:18:22;;;;;;;18.27;3.50;;;;;;;;;;5073535;28;20220;-63
2022/01/05 10:21:02;;;;;;;22.58;3.92;;;;;;;;;;5072719;28;20411;-63
2022/01/05 10:23:42;;;;;;;17.17;4.05;;;6.10;99.90;;;;;;5072982;28;20040;-62
2022/01/05 10:26:24;;;;;;;19.23;3.50;;;;;;;;;;5072814;28;20036;-63
2022/01/05 10:28:50;;;;;;;9.73;2.47;;;;;;;;;;5072831;28;20051;-62
2022/01/05 10:31:18;;;;;;;11.80;2.42;;;;;;;;;;5055990;28;20036;-62
2022/01/05 10:33:44;;;;;;;11.70;2.92;;;5.80;99.90;;;;;;5073429;28;20055;-63
2022/01/05 10:36:10;;;;;;;10.32;2.03;;;;;;;;;;5069156;28;20041;-62
2022/01/05 10:38:36;;;;;;;11.93;2.88;;;5.80;99.90;;;;;;5073362;28;20036;-63
2022/01/05 10:41:30;;;;;;;9.27;2.50;;;5.70;99.90;;;;;;5075152;28;20033;-62
2022/01/05 10:44:09;;;;;;;19.33;2.93;;;;;;;;;;5070828;28;20048;-63
2022/01/05 10:46:36;;;;;;;12.32;2.65;;;;;;;;;;5073693;28;20286;-63
2022/01/05 10:49:03;;;;;;;16.60;2.88;;;5.20;99.90;;;;;;5074171;28;20060;-62
2022/01/05 10:51:30;;;;;;;9.48;2.55;;;;;;;;;;5073107;28;20120;-63
2022/01/05 10:54:12;;;;;;;21.27;4.22;;;;;;;;;;5071470;28;20033;-63
2022/01/05 10:56:38;;;;;;;18.90;4.07;;;;;;;;;;5071641;28;20100;-63
2022/01/05 10:59:04;;;;;;;17.83;3.35;;;;;;;;;;5072372;28;20052;-63
2022/01/05 11:01:31;;;;;;;14.43;3.53;;;6.60;99.90;;;;;;5071834;28;20048;-63
2022/01/05 11:03:57;;;;;;;21.80;4.55;;;6.60;99.90;;;;;;5073017;28;20120;-62
2022/01/05 11:06:23;;;;;;;22.73;4.65;;;;;;;;;;5070048;28;20032;-63
2022/01/05 11:08:57;;;;;;;16.85;4.97;;;;;;;;;;5071908;28;20045;-63
2022/01/05 11:11:29;;;;;;;14.95;3.08;;;;;;;;;;5072002;28;20040;-64
2022/01/05 11:13:55;;;;;;;14.77;3.10;;;6.20;99.90;;;;;;5069609;28;20453;-63
2022/01/05 11:16:31;;;;;;;19.38;3.15;;;;;;;;;;5071119;28;20092;-64
2022/01/05 11:19:14;;;;;;;13.48;3.22;;;;;;;;;;5070964;28;20075;-64
2022/01/05 11:21:40;;;;;;;14.13;3.25;;;;;;;;;;5072120;28;20040;-64
2022/01/05 11:24:06;;;;;;;11.98;2.80;;;5.60;99.90;;;;;;5073008;28;20456;-64
2022/01/05 11:26:36;;;;;;;13.88;2.42;;;5.50;99.90;;;;;;5054490;28;20116;-63
2022/01/05 11:29:05;;;;;;;16.52;5.20;;;5.60;99.90;;;;;;5057489;28;20127;-64
2022/01/05 11:31:32;;;;;;;11.18;3.08;;;;;;;;;;5074104;28;20092;-64
2022/01/05 11:33:59;;;;;;;18.60;3.28;;;;;;;;;;5073398;28;20751;-63
2022/01/05 11:36:26;;;;;;;14.32;3.80;;;;;;;;;;5073104;28;20048;-64
2022/01/05 11:38:52;;;;;;;17.88;4.13;;;5.90;99.90;;;;;;5069319;28;20047;-63
2022/01/05 11:41:18;;;;;;;16.48;3.75;;;;;;;;;;5073305;28;20037;-63
2022/01/05 11:43:44;;;;;;;19.35;4.32;;;6.10;99.90;;;;;;5053693;28;20075;-62
2022/01/05 11:46:18;;;;;;;17.27;3.90;;;5.90;99.90;;;;;;5054254;28;20040;-63
2022/01/05 11:49:06;;;;;;;15.63;3.28;;;6.60;99.90;;;;;;5072680;28;20036;-63
2022/01/05 11:51:42;;;;;;;22.65;3.67;;;;;;;;;;5054415;28;20487;-62
2022/01/05 11:54:17;;;;;;;22.45;4.18;;;;;;;;;;5072211;28;20044;-63
2022/01/05 11:56:44;;;;;;;21.33;4.00;;;;;;;;;;5071502;28;20402;-62
2022/01/05 11:59:33;;;;;;;21.92;4.50;;;6.10;99.90;;;;;;5071776;28;20044;-63
2022/01/05 12:01:59;;;;;;;24.70;5.07;;;6.60;99.90;;;;;;5070857;28;20036;-63
2022/01/05 12:04:25;;;;;;;20.23;4.25;;;;;;;;;;5073336;28;20059;-63
2022/01/05 12:06:52;;;;;;;20.50;5.43;;;;;;;;;;5073709;28;20040;-63
2022/01/05 12:09:23;;;;;;;16.08;3.05;;;;;;;;;;5054551;28;20514;-64
2022/01/05 12:11:50;;;;;;;11.13;2.50;;;6.70;99.90;;;;;;5037594;28;20036;-64
2022/01/05 12:14:22;;;;;;;19.15;4.43;;;;;;;;;;5073127;28;20089;-63
2022/01/05 12:17:06;;;;;;;12.52;3.78;;;;;;;;;;5069655;28;20035;-63
2022/01/05 12:19:46;;;;;;;16.23;3.35;;;5.50;99.90;;;;;;5093656;28;20154;-62
2022/01/05 12:22:26;;;;;;;13.27;3.17;;;;;;;;;;5090278;28;20186;-63
2022/01/05 12:25:00;;;;;;;18.52;3.45;;;;;;;;;;5070287;28;20258;-63
2022/01/05 12:27:27;;;;;;;14.20;2.70;;;;;;;;;;5093560;28;20051;-63
2022/01/05 12:29:54;;;;;;;20.05;4.82;;;5.90;99.90;;;;;;5086518;28;20411;-63
2022/01/05 12:32:32;;;;;;;16.23;4.00;;;;;;;;;;5081796;28;20056;-63
2022/01/05 12:35:02;;;;;;;17.38;4.40;;;;;;;;;;5073567;28;20437;-63
2022/01/05 12:37:39;;;;;;;23.77;4.53;;;;;;;;;;5073321;28;20040;-63
2022/01/05 12:40:26;;;;;;;22.73;5.25;;;;;;;;;;5076868;28;20040;-63
2022/01/05 12:43:07;;;;;;;19.65;3.92;;;;;;;;;;5076866;28;20045;-63
2022/01/05 12:45:45;;;;;;;24.25;4.20;;;;;;;;;;5076092;28;20483;-62
2022/01/05 12:48:30;;;;;;;16.77;4.35;;;;;;;;;;5076235;28;20090;-63
2022/01/05 12:54:01;;;;;;;21.63;5.00;;;6.80;99.90;;;;;;5077162;28;20082;-62
2022/01/05 12:56:28;;;;;;;26.35;5.43;;;6.70;99.90;;;;;;5084376;28;20047;-63
2022/01/05 12:58:56;;;;;;;14.65;3.78;;;;;;;;;;5075758;28;20518;-62
2022/01/05 13:01:23;;;;;;;13.93;4.03;;;;;;;;;;5077173;28;20127;-63
2022/01/05 13:03:49;;;;;;;22.65;4.72;;;6.70;99.90;;;;;;5056093;28;20079;-63
2022/01/05 13:06:23;;;;;;;18.55;5.30;;;6.40;99.90;;;;;;5074822;28;20064;-62
2022/01/05 13:09:16;;;;;;;16.20;3.58;;;;;;;;;;5056033;28;20044;-62
2022/01/05 13:11:43;;;;;;;16.02;3.50;;;6.90;99.90;;;;;;5069314;28;20036;-63
2022/01/05 13:14:17;;;;;;;14.35;3.83;;;7.10;99.90;;;;;;5075139;28;20040;-62
2022/01/05 13:16:44;;;;;;;13.90;3.55;;;;;;;;;;5055711;28;20048;-63
2022/01/05 13:19:41;;;;;;;17.45;4.22;;;6.80;99.90;;;;;;5073723;28;20487;-62
2022/01/05 13:22:09;;;;;;;17.17;3.65;;;;;;;;;;5071501;28;20399;-62
2022/01/05 13:24:51;;;;;;;20.08;3.33;;;6.40;99.90;;;;;;5074071;28;20032;-61
2022/01/05 13:27:18;;;;;;;19.30;4.18;;;;;;;;;;5056732;28;20072;-62
2022/01/05 13:29:46;;;;;;;17.70;3.13;;;;;;;;;;5075041;28;20121;-62
2022/01/05 13:32:15;;;;;;;19.27;3.65;;;7.30;99.90;;;;;;5075075;28;20158;-62
2022/01/05 13:34:45;;;;;;;15.75;3.72;;;;;;;;;;5074143;28;20111;-62
2022/01/05 13:37:14;;;;;;;16.45;4.45;;;7.10;99.90;;;;;;5074684;28;20495;-62
2022/01/05 13:39:47;;;;;;;15.88;3.05;;;;;;;;;;5075022;28;20056;-62
2022/01/05 13:42:17;;;;;;;19.90;4.03;;;;;;;;;;5076026;28;20078;-62
2022/01/05 13:44:45;;;;;;;12.68;3.17;;;;;;;;;;5075494;28;20037;-62
2022/01/05 13:47:12;;;;;;;10.73;2.75;;;6.50;99.90;;;;;;5056389;28;20059;-62
2022/01/05 13:49:39;;;;;;;19.77;3.83;;;;;;;;;;5071842;28;20051;-62
2022/01/05 13:52:09;;;;;;;15.57;3.33;;;;;;;;;;5071308;28;20033;-62
2022/01/05 13:54:36;;;;;;;17.55;3.45;;;;;;;;;;5074654;28;20086;-62
2022/01/05 13:57:03;;;;;;;13.77;3.85;;;;;;;;;;5074351;28;20650;-63
2022/01/05 13:59:40;;;;;;;18.40;3.78;;;6.20;99.90;;;;;;5074311;28;20094;-61
2022/01/05 14:02:09;;;;;;;16.67;3.58;;;;;;;;;;5073806;28;20446;-63
2022/01/05 14:04:56;;;;;;;18.15;3.10;;;6.10;99.90;;;;;;5073591;28;20499;-62
2022/01/05 14:07:24;;;;;;;21.88;3.88;;;;;;;;;;5074253;28;20072;-62
2022/01/05 14:10:02;;;;;;;20.35;3.85;;;;;;;;;;5074203;28;20482;-63
2022/01/05 14:12:39;;;;;;;12.13;3.10;;;6.60;99.90;;;;;;5073940;28;20075;-62
2022/01/05 14:15:07;;;;;;;12.00;3.22;;;6.80;99.90;;;;;;5072485;28;20038;-62
2022/01/05 14:17:33;;;;;;;19.83;3.53;;;6.60;99.90;;;;;;5073285;28;20090;-62
2022/01/05 14:20:12;;;;;;;14.60;2.88;;;;;;;;;;5071086;28;20028;-63
2022/01/05 14:22:38;;;;;;;17.35;4.57;;;;;;;;;;5068882;28;20410;-62
2022/01/05 14:25:05;;;;;;;16.83;5.32;;;6.30;99.90;;;;;;5072259;28;20040;-62
2022/01/05 14:27:39;;;;;;;20.95;5.57;;;6.90;99.90;;;;;;5073016;28;20047;-62
2022/01/05 14:30:09;;;;;;;15.75;6.20;;;;;;;;;;5072729;28;20392;-62